createdAt,value
2022-11-10T00:00:06.675Z,991.97
2022-11-10T00:01:06.720Z,992.01
2022-11-10T00:02:06.661Z,992.03
2022-11-10T00:03:06.629Z,992.11
2022-11-10T00:04:06.694Z,992.06
2022-11-10T00:05:06.637Z,992.05
2022-11-10T00:06:06.619Z,992.11
2022-11-10T00:07:06.772Z,992.12
2022-11-10T00:08:06.664Z,992.18
2022-11-10T00:09:06.599Z,992.19
2022-11-10T00:10:06.583Z,992.19
2022-11-10T00:11:06.599Z,992.23
2022-11-10T00:12:06.670Z,992.21
2022-11-10T00:13:06.561Z,992.22
2022-11-10T00:14:06.581Z,992.20
2022-11-10T00:15:06.574Z,992.17
2022-11-10T00:16:06.547Z,992.24
2022-11-10T00:17:06.535Z,992.27
2022-11-10T00:18:06.570Z,992.19
2022-11-10T00:19:06.530Z,992.23
2022-11-10T00:20:06.525Z,992.28
2022-11-10T00:21:06.541Z,992.22
2022-11-10T00:22:06.505Z,992.24
2022-11-10T00:23:06.522Z,992.23
2022-11-10T00:24:06.492Z,992.28
2022-11-10T00:25:06.498Z,992.33
2022-11-10T00:26:06.477Z,992.35
2022-11-10T00:27:06.503Z,992.45
2022-11-10T00:28:06.475Z,992.38
2022-11-10T00:29:06.497Z,992.37
2022-11-10T00:30:06.472Z,992.39
2022-11-10T00:31:06.467Z,992.41
2022-11-10T00:32:06.456Z,992.45
2022-11-10T00:33:06.441Z,992.44
2022-11-10T00:34:06.567Z,992.49
2022-11-10T00:35:06.451Z,992.49
2022-11-10T00:36:06.419Z,992.53
2022-11-10T00:37:06.433Z,992.56
2022-11-10T00:38:06.423Z,992.59
2022-11-10T00:39:06.411Z,992.64
2022-11-10T00:40:06.416Z,992.63
2022-11-10T00:41:06.381Z,992.61
2022-11-10T00:42:06.375Z,992.66
2022-11-10T00:43:06.402Z,992.72
2022-11-10T00:44:06.387Z,992.61
2022-11-10T00:45:06.392Z,992.63
2022-11-10T00:46:06.369Z,992.67
2022-11-10T00:47:06.354Z,992.67
2022-11-10T00:48:06.349Z,992.70
2022-11-10T00:49:06.334Z,992.72
2022-11-10T00:50:06.350Z,992.73
2022-11-10T00:51:06.338Z,992.78
2022-11-10T00:52:06.325Z,992.76
2022-11-10T00:53:06.322Z,992.85
2022-11-10T00:54:06.321Z,992.74
2022-11-10T00:55:06.320Z,992.86
2022-11-10T00:56:06.332Z,992.83
2022-11-10T00:57:06.322Z,992.85
2022-11-10T00:58:06.307Z,992.87
2022-11-10T00:59:06.289Z,992.95
2022-11-10T01:00:06.273Z,992.98
2022-11-10T01:01:06.296Z,992.94
2022-11-10T01:02:06.379Z,992.96
2022-11-10T01:03:06.260Z,992.92
2022-11-10T01:04:06.260Z,992.91
2022-11-10T01:05:06.254Z,992.98
2022-11-10T01:06:06.278Z,993.09
2022-11-10T01:07:06.279Z,993.02
2022-11-10T01:08:06.244Z,992.98
2022-11-10T01:09:06.225Z,993.06
2022-11-10T01:10:06.210Z,993.10
2022-11-10T01:11:06.225Z,993.16
2022-11-10T01:12:06.204Z,993.08
2022-11-10T01:13:06.235Z,993.12
2022-11-10T01:14:06.206Z,993.19
2022-11-10T01:15:06.199Z,993.18
2022-11-10T01:16:06.183Z,993.17
2022-11-10T01:17:06.184Z,993.24
2022-11-10T01:18:06.308Z,993.20
2022-11-10T01:19:06.171Z,993.21
2022-11-10T01:20:06.162Z,993.21
2022-11-10T01:21:06.158Z,993.27
2022-11-10T01:22:06.166Z,993.31
2022-11-10T01:23:06.149Z,993.34
2022-11-10T01:24:06.172Z,993.40
2022-11-10T01:25:06.148Z,993.35
2022-11-10T01:26:06.112Z,993.37
2022-11-10T01:27:06.132Z,993.32
2022-11-10T01:28:06.128Z,993.34
2022-11-10T01:29:06.133Z,993.36
2022-11-10T01:30:06.084Z,993.39
2022-11-10T01:31:06.111Z,993.38
2022-11-10T01:32:06.101Z,993.37
2022-11-10T01:33:06.110Z,993.38
2022-11-10T01:34:06.098Z,993.35
2022-11-10T01:35:06.114Z,993.36
2022-11-10T01:36:06.073Z,993.37
2022-11-10T01:37:06.061Z,993.40
2022-11-10T01:38:06.079Z,993.36
2022-11-10T01:39:06.079Z,993.33
2022-11-10T01:40:06.105Z,993.41
2022-11-10T01:41:06.033Z,993.37
2022-11-10T01:42:06.028Z,993.45
2022-11-10T01:43:06.025Z,993.38
2022-11-10T01:44:06.020Z,993.36
2022-11-10T01:45:06.016Z,993.40
2022-11-10T01:46:06.018Z,993.37
2022-11-10T01:47:06.016Z,993.38
2022-11-10T01:48:05.995Z,993.40
2022-11-10T01:49:05.986Z,993.52
2022-11-10T01:50:06.014Z,993.56
2022-11-10T01:51:06.200Z,993.49
2022-11-10T01:52:05.998Z,993.49
2022-11-10T01:53:05.975Z,993.51
2022-11-10T01:54:05.984Z,993.56
2022-11-10T01:55:05.951Z,993.44
2022-11-10T01:56:05.957Z,993.47
2022-11-10T01:57:06.084Z,993.41
2022-11-10T01:58:05.943Z,993.46
2022-11-10T01:59:05.925Z,993.44
2022-11-10T02:00:05.926Z,993.47
2022-11-10T02:01:05.930Z,993.49
2022-11-10T02:02:05.992Z,993.50
2022-11-10T02:03:05.898Z,993.44
2022-11-10T02:04:05.904Z,993.55
2022-11-10T02:05:05.872Z,993.47
2022-11-10T02:06:05.883Z,993.49
2022-11-10T02:07:05.896Z,993.49
2022-11-10T02:08:05.914Z,993.55
2022-11-10T02:09:06.864Z,993.54
2022-11-10T02:10:05.875Z,993.55
2022-11-10T02:11:05.860Z,993.53
2022-11-10T02:12:05.877Z,993.62
2022-11-10T02:13:05.883Z,993.56
2022-11-10T02:14:05.836Z,993.60
2022-11-10T02:15:05.834Z,993.60
2022-11-10T02:16:05.811Z,993.60
2022-11-10T02:17:05.843Z,993.58
2022-11-10T02:18:05.851Z,993.53
2022-11-10T02:19:06.187Z,993.57
2022-11-10T02:20:05.794Z,993.59
2022-11-10T02:21:05.783Z,993.59
2022-11-10T02:22:05.797Z,993.54
2022-11-10T02:23:05.785Z,993.52
2022-11-10T02:24:05.816Z,993.52
2022-11-10T02:25:05.762Z,993.54
2022-11-10T02:26:05.769Z,993.59
2022-11-10T02:27:05.755Z,993.54
2022-11-10T02:28:05.751Z,993.52
2022-11-10T02:29:05.725Z,993.56
2022-11-10T02:30:05.753Z,993.53
2022-11-10T02:31:05.733Z,993.57
2022-11-10T02:32:05.731Z,993.54
2022-11-10T02:33:05.731Z,993.51
2022-11-10T02:34:05.723Z,993.59
2022-11-10T02:35:05.719Z,993.59
2022-11-10T02:36:05.700Z,993.61
2022-11-10T02:37:05.674Z,993.61
2022-11-10T02:38:05.717Z,993.56
2022-11-10T02:39:05.696Z,993.60
2022-11-10T02:40:05.692Z,993.61
2022-11-10T02:41:05.691Z,993.55
2022-11-10T02:42:05.668Z,993.51
2022-11-10T02:43:05.666Z,993.55
2022-11-10T02:44:05.656Z,993.55
2022-11-10T02:45:05.651Z,993.56
2022-11-10T02:46:05.657Z,993.61
2022-11-10T02:47:05.654Z,993.60
2022-11-10T02:48:05.606Z,993.63
2022-11-10T02:49:05.652Z,993.62
2022-11-10T02:50:05.604Z,993.72
2022-11-10T02:51:05.617Z,993.72
2022-11-10T02:52:05.631Z,993.78
2022-11-10T02:53:05.587Z,993.74
2022-11-10T02:54:05.586Z,993.84
2022-11-10T02:55:05.576Z,993.86
2022-11-10T02:56:05.590Z,993.89
2022-11-10T02:57:05.672Z,993.90
2022-11-10T02:58:05.557Z,993.90
2022-11-10T02:59:05.561Z,993.97
2022-11-10T03:00:05.559Z,993.97
2022-11-10T03:01:05.624Z,994.01
2022-11-10T03:02:05.515Z,994.04
2022-11-10T03:03:05.644Z,994.05
2022-11-10T03:04:05.529Z,993.97
2022-11-10T03:05:05.523Z,993.95
2022-11-10T03:06:05.518Z,994.00
2022-11-10T03:07:05.534Z,994.01
2022-11-10T03:08:05.627Z,993.99
2022-11-10T03:09:05.498Z,993.99
2022-11-10T03:10:05.505Z,994.01
2022-11-10T03:11:05.481Z,993.98
2022-11-10T03:12:05.491Z,994.01
2022-11-10T03:13:05.468Z,993.98
2022-11-10T03:14:05.499Z,994.03
2022-11-10T03:15:05.465Z,994.02
2022-11-10T03:16:05.460Z,994.13
2022-11-10T03:17:05.458Z,994.14
2022-11-10T03:18:05.455Z,994.15
2022-11-10T03:19:05.548Z,994.12
2022-11-10T03:20:05.434Z,994.21
2022-11-10T03:21:05.423Z,994.16
2022-11-10T03:22:05.423Z,994.19
2022-11-10T03:23:05.407Z,994.15
2022-11-10T03:24:05.406Z,994.16
2022-11-10T03:25:05.429Z,994.11
2022-11-10T03:26:05.385Z,994.21
2022-11-10T03:27:05.394Z,994.26
2022-11-10T03:28:05.372Z,994.20
2022-11-10T03:29:05.379Z,994.15
2022-11-10T03:30:05.428Z,994.21
2022-11-10T03:31:05.384Z,994.10
2022-11-10T03:32:05.365Z,994.10
2022-11-10T03:33:05.366Z,994.17
2022-11-10T03:34:05.347Z,994.14
2022-11-10T03:35:05.336Z,994.21
2022-11-10T03:36:05.364Z,994.27
2022-11-10T03:37:05.320Z,994.29
2022-11-10T03:38:05.313Z,994.31
2022-11-10T03:39:05.306Z,994.33
2022-11-10T03:40:05.318Z,994.28
2022-11-10T03:41:19.209Z,994.33
2022-11-10T03:42:07.324Z,994.34
2022-11-10T03:43:05.288Z,994.37
2022-11-10T03:44:05.297Z,994.37
2022-11-10T03:45:05.288Z,994.34
2022-11-10T03:46:05.277Z,994.45
2022-11-10T03:47:05.369Z,994.39
2022-11-10T03:48:05.251Z,994.36
2022-11-10T03:49:05.242Z,994.35
2022-11-10T03:50:05.264Z,994.34
2022-11-10T03:51:05.244Z,994.45
2022-11-10T03:52:05.339Z,994.41
2022-11-10T03:53:05.248Z,994.45
2022-11-10T03:54:05.239Z,994.44
2022-11-10T03:55:05.223Z,994.51
2022-11-10T03:56:05.215Z,994.55
2022-11-10T03:57:05.197Z,994.57
2022-11-10T03:58:05.301Z,994.60
2022-11-10T03:59:05.221Z,994.64
2022-11-10T04:00:05.311Z,994.65
2022-11-10T04:01:05.179Z,994.67
2022-11-10T04:02:05.212Z,994.76
2022-11-10T04:03:05.188Z,994.68
2022-11-10T04:04:05.150Z,994.78
2022-11-10T04:05:05.139Z,994.77
2022-11-10T04:06:05.131Z,994.75
2022-11-10T04:07:05.343Z,994.81
2022-11-10T04:08:05.135Z,994.83
2022-11-10T04:09:05.126Z,994.81
2022-11-10T04:10:05.116Z,994.79
2022-11-10T04:11:05.099Z,994.79
2022-11-10T04:12:05.107Z,994.83
2022-11-10T04:13:05.087Z,994.80
2022-11-10T04:14:05.118Z,994.84
2022-11-10T04:15:05.087Z,994.86
2022-11-10T04:16:05.083Z,994.94
2022-11-10T04:17:05.095Z,994.89
2022-11-10T04:18:05.110Z,994.86
2022-11-10T04:19:05.073Z,994.80
2022-11-10T04:20:05.086Z,994.76
2022-11-10T04:21:05.046Z,994.77
2022-11-10T04:22:05.039Z,994.72
2022-11-10T04:23:05.038Z,994.74
2022-11-10T04:24:05.035Z,994.69
2022-11-10T04:25:05.159Z,994.65
2022-11-10T04:26:05.024Z,994.70
2022-11-10T04:27:05.025Z,994.70
2022-11-10T04:28:05.011Z,994.75
2022-11-10T04:29:04.983Z,994.74
2022-11-10T04:30:04.990Z,994.85
2022-11-10T04:31:05.006Z,994.85
2022-11-10T04:32:04.979Z,994.96
2022-11-10T04:33:04.985Z,994.98
2022-11-10T04:34:04.979Z,995.01
2022-11-10T04:35:04.978Z,995.03
2022-11-10T04:36:04.984Z,995.03
2022-11-10T04:37:04.943Z,995.02
2022-11-10T04:38:04.957Z,995.04
2022-11-10T04:39:04.948Z,995.06
2022-11-10T04:40:04.928Z,995.09
2022-11-10T04:41:04.931Z,995.06
2022-11-10T04:42:05.372Z,995.14
2022-11-10T04:43:04.925Z,995.15
2022-11-10T04:44:04.896Z,995.15
2022-11-10T04:45:04.909Z,995.13
2022-11-10T04:46:04.914Z,995.08
2022-11-10T04:47:10.576Z,995.15
2022-11-10T04:48:06.887Z,995.14
2022-11-10T04:49:04.870Z,995.23
2022-11-10T04:50:04.874Z,995.21
2022-11-10T04:51:04.871Z,995.27
2022-11-10T04:52:04.909Z,995.23
2022-11-10T04:53:04.886Z,995.21
2022-11-10T04:54:04.927Z,995.23
2022-11-10T04:55:04.877Z,995.24
2022-11-10T04:56:04.908Z,995.27
2022-11-10T04:57:04.827Z,995.31
2022-11-10T04:58:05.669Z,995.38
2022-11-10T04:59:04.817Z,995.38
2022-11-10T05:00:04.829Z,995.42
2022-11-10T05:01:04.842Z,995.37
2022-11-10T05:02:04.806Z,995.33
2022-11-10T05:03:04.795Z,995.37
2022-11-10T05:04:04.807Z,995.44
2022-11-10T05:05:04.808Z,995.43
2022-11-10T05:06:04.763Z,995.46
2022-11-10T05:07:04.809Z,995.41
2022-11-10T05:08:04.777Z,995.50
2022-11-10T05:09:04.751Z,995.53
2022-11-10T05:10:04.747Z,995.45
2022-11-10T05:11:04.755Z,995.48
2022-11-10T05:12:04.749Z,995.49
2022-11-10T05:13:04.732Z,995.48
2022-11-10T05:14:04.732Z,995.45
2022-11-10T05:15:04.735Z,995.50
2022-11-10T05:16:04.687Z,995.47
2022-11-10T05:17:04.718Z,995.49
2022-11-10T05:18:04.713Z,995.54
2022-11-10T05:19:04.689Z,995.59
2022-11-10T05:20:04.687Z,995.64
2022-11-10T05:21:04.698Z,995.63
2022-11-10T05:22:04.677Z,995.61
2022-11-10T05:23:04.686Z,995.58
2022-11-10T05:24:04.662Z,995.63
2022-11-10T05:25:04.665Z,995.60
2022-11-10T05:26:04.660Z,995.62
2022-11-10T05:27:04.681Z,995.64
2022-11-10T05:28:04.656Z,995.66
2022-11-10T05:29:04.619Z,995.75
2022-11-10T05:30:04.629Z,995.77
2022-11-10T05:31:04.616Z,995.72
2022-11-10T05:32:04.612Z,995.79
2022-11-10T05:33:04.614Z,995.81
2022-11-10T05:34:04.604Z,995.81
2022-11-10T05:35:04.589Z,995.84
2022-11-10T05:36:04.579Z,995.88
2022-11-10T05:37:04.588Z,995.89
2022-11-10T05:38:04.596Z,995.92
2022-11-10T05:39:04.578Z,995.88
2022-11-10T05:40:04.557Z,995.89
2022-11-10T05:41:04.557Z,995.94
2022-11-10T05:42:04.566Z,995.96
2022-11-10T05:43:04.556Z,995.92
2022-11-10T05:44:04.540Z,996.00
2022-11-10T05:45:04.531Z,995.99
2022-11-10T05:46:04.538Z,996.07
2022-11-10T05:47:04.574Z,996.10
2022-11-10T05:48:04.512Z,996.14
2022-11-10T05:49:04.508Z,996.16
2022-11-10T05:50:04.500Z,996.22
2022-11-10T05:51:04.497Z,996.21
2022-11-10T05:52:04.498Z,996.21
2022-11-10T05:53:04.503Z,996.21
2022-11-10T05:54:04.508Z,996.27
2022-11-10T05:55:04.476Z,996.27
2022-11-10T05:56:04.465Z,996.22
2022-11-10T05:57:04.474Z,996.29
2022-11-10T05:58:04.467Z,996.27
2022-11-10T05:59:07.233Z,996.28
2022-11-10T06:00:04.464Z,996.26
2022-11-10T06:01:04.441Z,996.30
2022-11-10T06:02:04.451Z,996.31
2022-11-10T06:03:04.502Z,996.33
2022-11-10T06:04:04.491Z,996.35
2022-11-10T06:05:04.410Z,996.43
2022-11-10T06:06:05.355Z,996.46
2022-11-10T06:07:04.589Z,996.44
2022-11-10T06:08:04.404Z,996.50
2022-11-10T06:09:05.367Z,996.48
2022-11-10T06:10:04.383Z,996.44
2022-11-10T06:11:04.379Z,996.52
2022-11-10T06:12:04.388Z,996.47
2022-11-10T06:13:04.365Z,996.50
2022-11-10T06:14:04.345Z,996.49
2022-11-10T06:15:04.351Z,996.62
2022-11-10T06:16:04.316Z,996.62
2022-11-10T06:17:04.352Z,996.62
2022-11-10T06:18:04.348Z,996.73
2022-11-10T06:19:04.314Z,996.77
2022-11-10T06:20:04.322Z,996.84
2022-11-10T06:21:04.305Z,996.81
2022-11-10T06:22:07.657Z,996.86
2022-11-10T06:23:05.408Z,996.85
2022-11-10T06:24:04.356Z,996.84
2022-11-10T06:25:04.275Z,996.83
2022-11-10T06:26:04.311Z,996.86
2022-11-10T06:27:04.279Z,996.85
2022-11-10T06:28:04.275Z,996.73
2022-11-10T06:29:04.283Z,996.79
2022-11-10T06:30:04.250Z,996.84
2022-11-10T06:31:04.242Z,996.89
2022-11-10T06:32:04.258Z,996.86
2022-11-10T06:33:04.247Z,996.91
2022-11-10T06:34:04.219Z,996.97
2022-11-10T06:35:04.220Z,996.94
2022-11-10T06:36:04.223Z,996.99
2022-11-10T06:37:04.228Z,996.98
2022-11-10T06:38:04.220Z,996.99
2022-11-10T06:39:04.212Z,997.01
2022-11-10T06:40:04.204Z,996.97
2022-11-10T06:41:04.200Z,996.99
2022-11-10T06:42:04.202Z,997.13
2022-11-10T06:43:04.177Z,997.13
2022-11-10T06:44:04.155Z,997.11
2022-11-10T06:45:04.170Z,997.23
2022-11-10T06:46:04.150Z,997.17
2022-11-10T06:47:04.125Z,997.20
2022-11-10T06:48:05.263Z,997.14
2022-11-10T06:49:04.153Z,997.24
2022-11-10T06:50:04.121Z,997.27
2022-11-10T06:51:04.119Z,997.18
2022-11-10T06:52:04.122Z,997.22
2022-11-10T06:53:04.113Z,997.18
2022-11-10T06:54:04.239Z,997.23
2022-11-10T06:55:04.105Z,997.24
2022-11-10T06:56:04.088Z,997.28
2022-11-10T06:57:04.102Z,997.28
2022-11-10T06:58:04.090Z,997.26
2022-11-10T06:59:04.082Z,997.26
2022-11-10T07:00:04.068Z,997.26
2022-11-10T07:01:04.109Z,997.41
2022-11-10T07:02:04.065Z,997.46
2022-11-10T07:03:04.072Z,997.50
2022-11-10T07:04:19.162Z,997.48
2022-11-10T07:05:06.149Z,997.49
2022-11-10T07:06:04.010Z,997.59
2022-11-10T07:07:04.049Z,997.47
2022-11-10T07:08:03.995Z,997.58
2022-11-10T07:09:04.006Z,997.62
2022-11-10T07:10:06.963Z,997.63
2022-11-10T07:11:05.035Z,997.75
2022-11-10T07:12:03.978Z,997.74
2022-11-10T07:13:03.975Z,997.76
2022-11-10T07:14:03.980Z,997.77
2022-11-10T07:15:03.983Z,997.75
2022-11-10T07:16:03.982Z,997.82
2022-11-10T07:17:04.006Z,997.81
2022-11-10T07:18:03.947Z,997.85
2022-11-10T07:19:03.935Z,997.87
2022-11-10T07:20:04.939Z,997.93
2022-11-10T07:21:03.977Z,997.87
2022-11-10T07:22:09.671Z,997.93
2022-11-10T07:23:05.917Z,997.97
2022-11-10T07:24:03.911Z,998.04
2022-11-10T07:25:03.903Z,998.00
2022-11-10T07:26:03.909Z,998.06
2022-11-10T07:27:03.908Z,998.08
2022-11-10T07:28:03.912Z,998.10
2022-11-10T07:29:03.894Z,998.07
2022-11-10T07:30:03.869Z,998.11
2022-11-10T07:31:03.873Z,998.14
2022-11-10T07:32:03.877Z,998.15
2022-11-10T07:33:03.862Z,998.14
2022-11-10T07:34:03.838Z,998.17
2022-11-10T07:35:03.847Z,998.11
2022-11-10T07:36:03.849Z,998.08
2022-11-10T07:37:03.832Z,998.11
2022-11-10T07:38:03.827Z,998.13
2022-11-10T07:39:04.696Z,998.13
2022-11-10T07:40:03.796Z,998.10
2022-11-10T07:41:03.847Z,998.13
2022-11-10T07:42:03.820Z,998.13
2022-11-10T07:43:03.794Z,998.09
2022-11-10T07:44:03.791Z,998.09
2022-11-10T07:45:03.811Z,998.12
2022-11-10T07:46:03.786Z,998.02
2022-11-10T07:47:03.780Z,998.07
2022-11-10T07:48:03.761Z,998.15
2022-11-10T07:49:03.756Z,998.10
2022-11-10T07:50:03.767Z,998.21
2022-11-10T07:51:03.762Z,998.18
2022-11-10T07:52:03.746Z,998.08
2022-11-10T07:53:04.736Z,998.02
2022-11-10T07:54:03.718Z,998.03
2022-11-10T07:55:03.717Z,998.05
2022-11-10T07:56:03.716Z,998.15
2022-11-10T07:57:04.737Z,998.18
2022-11-10T07:58:03.719Z,998.13
2022-11-10T07:59:03.689Z,998.20
2022-11-10T08:00:04.690Z,998.17
2022-11-10T08:01:03.688Z,998.18
2022-11-10T08:02:03.761Z,998.17
2022-11-10T08:03:03.688Z,998.13
2022-11-10T08:04:03.662Z,998.17
2022-11-10T08:05:03.664Z,998.16
2022-11-10T08:06:03.675Z,998.19
2022-11-10T08:07:03.720Z,998.15
2022-11-10T08:08:03.642Z,998.17
2022-11-10T08:09:03.634Z,998.22
2022-11-10T08:10:03.641Z,998.16
2022-11-10T08:11:03.641Z,998.21
2022-11-10T08:12:03.634Z,998.29
2022-11-10T08:13:03.600Z,998.18
2022-11-10T08:14:03.609Z,998.22
2022-11-10T08:15:03.597Z,998.29
2022-11-10T08:16:03.607Z,998.19
2022-11-10T08:17:03.617Z,998.29
2022-11-10T08:18:03.597Z,998.32
2022-11-10T08:19:03.581Z,998.28
2022-11-10T08:20:03.563Z,998.31
2022-11-10T08:21:03.581Z,998.29
2022-11-10T08:22:03.586Z,998.38
2022-11-10T08:23:03.556Z,998.33
2022-11-10T08:24:03.545Z,998.35
2022-11-10T08:25:03.542Z,998.32
2022-11-10T08:26:03.558Z,998.26
2022-11-10T08:27:03.554Z,998.35
2022-11-10T08:28:03.521Z,998.27
2022-11-10T08:29:03.543Z,998.46
2022-11-10T08:30:03.514Z,998.32
2022-11-10T08:31:05.741Z,998.34
2022-11-10T08:32:03.506Z,998.42
2022-11-10T08:33:03.496Z,998.47
2022-11-10T08:34:03.513Z,998.48
2022-11-10T08:35:03.478Z,998.51
2022-11-10T08:36:03.489Z,998.46
2022-11-10T08:37:03.486Z,998.58
2022-11-10T08:38:08.959Z,998.54
2022-11-10T08:39:05.461Z,998.64
2022-11-10T08:40:03.453Z,998.54
2022-11-10T08:41:03.482Z,998.69
2022-11-10T08:42:03.476Z,998.68
2022-11-10T08:43:03.443Z,998.54
2022-11-10T08:44:04.123Z,998.59
2022-11-10T08:45:03.450Z,998.60
2022-11-10T08:46:03.439Z,998.65
2022-11-10T08:47:03.423Z,998.64
2022-11-10T08:48:03.418Z,998.76
2022-11-10T08:49:03.390Z,998.76
2022-11-10T08:50:03.379Z,998.82
2022-11-10T08:51:03.394Z,998.73
2022-11-10T08:52:03.391Z,998.74
2022-11-10T08:53:03.364Z,998.77
2022-11-10T08:54:03.377Z,998.98
2022-11-10T08:55:03.358Z,998.91
2022-11-10T08:56:03.391Z,998.91
2022-11-10T08:57:03.404Z,998.80
2022-11-10T08:58:03.336Z,998.77
2022-11-10T08:59:03.342Z,998.91
2022-11-10T09:00:03.324Z,998.92
2022-11-10T09:01:03.335Z,998.82
2022-11-10T09:02:03.327Z,998.82
2022-11-10T09:03:03.315Z,998.86
2022-11-10T09:04:03.317Z,998.95
2022-11-10T09:05:03.459Z,998.88
2022-11-10T09:06:03.302Z,998.95
2022-11-10T09:07:03.304Z,999.02
2022-11-10T09:08:03.297Z,998.94
2022-11-10T09:09:03.346Z,999.00
2022-11-10T09:10:07.615Z,998.93
2022-11-10T09:11:04.381Z,999.13
2022-11-10T09:12:03.255Z,999.19
2022-11-10T09:13:03.269Z,999.16
2022-11-10T09:14:03.285Z,999.06
2022-11-10T09:15:03.263Z,999.21
2022-11-10T09:16:03.254Z,999.30
2022-11-10T09:17:03.333Z,999.40
2022-11-10T09:18:03.242Z,999.23
2022-11-10T09:19:03.234Z,999.28
2022-11-10T09:20:03.317Z,999.30
2022-11-10T09:21:03.231Z,999.29
2022-11-10T09:22:03.346Z,999.16
2022-11-10T09:23:03.193Z,999.22
2022-11-10T09:24:03.192Z,999.29
2022-11-10T09:25:03.178Z,999.26
2022-11-10T09:26:03.170Z,999.34
2022-11-10T09:27:03.176Z,999.30
2022-11-10T09:28:03.189Z,999.38
2022-11-10T09:29:03.164Z,999.31
2022-11-10T09:30:03.159Z,999.37
2022-11-10T09:31:03.171Z,999.32
2022-11-10T09:32:03.175Z,999.34
2022-11-10T09:33:03.188Z,999.28
2022-11-10T09:34:03.137Z,999.33
2022-11-10T09:35:03.134Z,999.38
2022-11-10T09:36:03.126Z,999.33
2022-11-10T09:37:03.117Z,999.41
2022-11-10T09:38:03.131Z,999.38
2022-11-10T09:39:03.216Z,999.37
2022-11-10T09:40:03.104Z,999.42
2022-11-10T09:41:03.147Z,999.45
2022-11-10T09:42:03.090Z,999.45
2022-11-10T09:43:03.084Z,999.59
2022-11-10T09:44:03.131Z,999.67
2022-11-10T09:45:03.075Z,999.69
2022-11-10T09:46:03.070Z,999.65
2022-11-10T09:47:03.053Z,999.70
2022-11-10T09:48:03.051Z,999.79
2022-11-10T09:49:03.046Z,999.77
2022-11-10T09:50:03.058Z,999.75
2022-11-10T09:51:03.040Z,999.71
2022-11-10T09:52:03.031Z,999.76
2022-11-10T09:53:03.055Z,999.73
2022-11-10T09:54:03.032Z,999.74
2022-11-10T09:55:03.027Z,999.80
2022-11-10T09:56:02.994Z,999.83
2022-11-10T09:57:03.000Z,999.83
2022-11-10T09:58:03.014Z,999.79
2022-11-10T09:59:02.970Z,999.79
2022-11-10T10:00:02.980Z,999.76
2022-11-10T10:01:03.036Z,999.77
2022-11-10T10:02:02.962Z,999.83
2022-11-10T10:03:02.966Z,999.91
2022-11-10T10:04:02.952Z,999.90
2022-11-10T10:05:02.937Z,999.95
2022-11-10T10:06:03.134Z,999.91
2022-11-10T10:07:11.268Z,999.93
2022-11-10T10:08:04.940Z,999.94
2022-11-10T10:09:02.932Z,999.98
2022-11-10T10:10:02.959Z,999.95
2022-11-10T10:11:02.920Z,999.98
2022-11-10T10:12:03.053Z,999.96
2022-11-10T10:13:02.900Z,999.94
2022-11-10T10:14:02.908Z,999.98
2022-11-10T10:15:02.903Z,999.99
2022-11-10T10:16:02.889Z,1000.02
2022-11-10T10:17:02.912Z,1000.00
2022-11-10T10:18:02.887Z,1000.06
2022-11-10T10:19:02.866Z,1000.11
2022-11-10T10:20:02.874Z,1000.14
2022-11-10T10:21:02.864Z,1000.12
2022-11-10T10:22:02.854Z,1000.13
2022-11-10T10:23:02.895Z,1000.15
2022-11-10T10:24:10.240Z,1000.15
2022-11-10T10:25:04.916Z,1000.16
2022-11-10T10:26:02.848Z,1000.14
2022-11-10T10:27:02.818Z,1000.15
2022-11-10T10:28:02.855Z,1000.14
2022-11-10T10:29:02.807Z,1000.15
2022-11-10T10:30:02.808Z,1000.09
2022-11-10T10:31:02.795Z,1000.12
2022-11-10T10:32:02.806Z,1000.14
2022-11-10T10:33:02.787Z,1000.12
2022-11-10T10:34:02.897Z,1000.15
2022-11-10T10:35:02.772Z,1000.18
2022-11-10T10:36:02.763Z,1000.15
2022-11-10T10:37:03.778Z,1000.18
2022-11-10T10:38:03.764Z,1000.09
2022-11-10T10:39:02.777Z,1000.18
2022-11-10T10:40:02.867Z,1000.11
2022-11-10T10:41:02.774Z,1000.08
2022-11-10T10:42:02.727Z,1000.05
2022-11-10T10:43:02.744Z,1000.03
2022-11-10T10:44:02.758Z,1000.06
2022-11-10T10:45:02.852Z,1000.18
2022-11-10T10:46:02.717Z,1000.03
2022-11-10T10:47:02.706Z,1000.11
2022-11-10T10:48:02.703Z,1000.01
2022-11-10T10:49:26.730Z,1000.05
2022-11-10T10:50:02.723Z,1000.09
2022-11-10T10:51:02.682Z,1000.05
2022-11-10T10:52:02.653Z,1000.03
2022-11-10T10:53:02.666Z,1000.02
2022-11-10T10:54:02.662Z,1000.04
2022-11-10T10:55:02.643Z,999.96
2022-11-10T10:56:02.764Z,999.99
2022-11-10T10:57:02.641Z,1000.02
2022-11-10T10:58:02.652Z,1000.01
2022-11-10T10:59:02.633Z,999.98
2022-11-10T11:00:02.633Z,1000.00
2022-11-10T11:01:02.687Z,1000.01
2022-11-10T11:02:02.605Z,999.99
2022-11-10T11:03:04.631Z,999.97
2022-11-10T11:04:02.601Z,999.97
2022-11-10T11:05:02.617Z,999.98
2022-11-10T11:06:02.614Z,1000.09
2022-11-10T11:07:02.660Z,1000.09
2022-11-10T11:08:02.571Z,1000.07
2022-11-10T11:09:02.576Z,1000.14
2022-11-10T11:10:02.593Z,1000.09
2022-11-10T11:11:02.563Z,1000.06
2022-11-10T11:12:02.784Z,1000.06
2022-11-10T11:13:02.559Z,1000.10
2022-11-10T11:14:02.552Z,1000.06
2022-11-10T11:15:02.567Z,1000.07
2022-11-10T11:16:02.533Z,1000.13
2022-11-10T11:17:02.580Z,1000.08
2022-11-10T11:18:02.657Z,1000.09
2022-11-10T11:19:02.506Z,1000.04
2022-11-10T11:20:02.509Z,1000.13
2022-11-10T11:21:02.510Z,1000.17
2022-11-10T11:22:02.525Z,1000.24
2022-11-10T11:23:02.531Z,1000.27
2022-11-10T11:24:02.507Z,1000.25
2022-11-10T11:25:02.465Z,1000.28
2022-11-10T11:26:02.473Z,1000.19
2022-11-10T11:27:02.478Z,1000.20
2022-11-10T11:28:02.491Z,1000.27
2022-11-10T11:29:02.492Z,1000.34
2022-11-10T11:30:02.435Z,1000.37
2022-11-10T11:31:02.436Z,1000.37
2022-11-10T11:32:02.430Z,1000.42
2022-11-10T11:33:02.444Z,1000.34
2022-11-10T11:34:02.559Z,1000.38
2022-11-10T11:35:02.423Z,1000.33
2022-11-10T11:36:02.415Z,1000.31
2022-11-10T11:37:06.899Z,1000.38
2022-11-10T11:38:03.401Z,1000.43
2022-11-10T11:39:02.402Z,1000.40
2022-11-10T11:40:02.418Z,1000.41
2022-11-10T11:41:02.387Z,1000.40
2022-11-10T11:42:02.385Z,1000.39
2022-11-10T11:43:02.375Z,1000.31
2022-11-10T11:44:02.356Z,1000.39
2022-11-10T11:45:02.455Z,1000.38
2022-11-10T11:46:02.346Z,1000.44
2022-11-10T11:47:02.351Z,1000.36
2022-11-10T11:48:02.355Z,1000.40
2022-11-10T11:49:02.332Z,1000.44
2022-11-10T11:50:02.340Z,1000.29
2022-11-10T11:51:02.360Z,1000.31
2022-11-10T11:52:02.399Z,1000.39
2022-11-10T11:53:02.321Z,1000.30
2022-11-10T11:54:02.363Z,1000.26
2022-11-10T11:55:02.306Z,1000.26
2022-11-10T11:56:02.383Z,1000.39
2022-11-10T11:57:02.287Z,1000.26
2022-11-10T11:58:02.272Z,1000.28
2022-11-10T11:59:02.277Z,1000.31
2022-11-10T12:00:36.360Z,1000.45
2022-11-10T12:01:02.263Z,1000.37
2022-11-10T12:02:02.450Z,1000.41
2022-11-10T12:03:02.299Z,1000.45
2022-11-10T12:04:02.240Z,1000.38
2022-11-10T12:05:02.256Z,1000.32
2022-11-10T12:06:02.235Z,1000.43
2022-11-10T12:07:02.285Z,1000.42
2022-11-10T12:08:02.212Z,1000.47
2022-11-10T12:09:02.210Z,1000.48
2022-11-10T12:10:02.198Z,1000.64
2022-11-10T12:11:02.207Z,1000.56
2022-11-10T12:12:02.211Z,1000.55
2022-11-10T12:13:02.298Z,1000.54
2022-11-10T12:14:02.206Z,1000.55
2022-11-10T12:15:02.186Z,1000.54
2022-11-10T12:16:02.173Z,1000.55
2022-11-10T12:17:36.891Z,1000.67
2022-11-10T12:18:02.292Z,1000.69
2022-11-10T12:19:02.180Z,1000.60
2022-11-10T12:20:02.183Z,1000.64
2022-11-10T12:21:02.145Z,1000.68
2022-11-10T12:22:02.146Z,1000.62
2022-11-10T12:23:02.138Z,1000.61
2022-11-10T12:24:07.358Z,1000.68